createdAt,value
2018-12-29T00:00:49.141Z,101464.23
2018-12-29T00:03:52.662Z,101453.70
2018-12-29T00:06:58.198Z,101459.00
2018-12-29T00:10:02.926Z,101457.81
2018-12-29T00:13:06.434Z,101462.24
2018-12-29T00:16:09.928Z,101462.66
2018-12-29T00:19:14.457Z,101464.37
2018-12-29T00:22:17.958Z,101465.31
2018-12-29T00:25:21.467Z,101470.98
2018-12-29T00:28:24.973Z,101474.95
2018-12-29T00:31:28.468Z,101470.53
2018-12-29T00:34:31.912Z,101471.37
2018-12-29T00:37:35.376Z,101470.05
2018-12-29T00:40:38.870Z,101470.05
2018-12-29T00:43:42.310Z,101470.53
2018-12-29T00:46:45.777Z,101473.64
2018-12-29T00:49:49.271Z,101484.61
2018-12-29T00:52:52.778Z,101486.42
2018-12-29T00:55:56.217Z,101485.55
2018-12-29T00:59:00.786Z,101488.20
2018-12-29T01:02:04.301Z,101489.14
2018-12-29T01:05:07.801Z,101488.72
2018-12-29T01:08:12.324Z,101483.84
2018-12-29T01:11:16.836Z,101490.98
2018-12-29T01:14:21.369Z,101494.56
2018-12-29T01:17:24.875Z,101498.13
2018-12-29T01:20:29.392Z,101500.38
2018-12-29T01:23:32.964Z,101500.00
2018-12-29T01:26:36.609Z,101502.71
2018-12-29T01:29:40.106Z,101507.14
2018-12-29T01:32:43.550Z,101508.08
2018-12-29T01:35:47.002Z,101506.36
2018-12-29T01:38:50.525Z,101505.56
2018-12-29T01:41:53.986Z,101504.23
2018-12-29T01:44:57.447Z,101507.83
2018-12-29T01:48:00.921Z,101510.47
2018-12-29T01:51:04.366Z,101506.50
2018-12-29T01:54:08.931Z,101509.08
2018-12-29T01:57:12.430Z,101512.56
2018-12-29T02:00:17.020Z,101513.05
2018-12-29T02:03:20.674Z,101505.49
2018-12-29T02:06:25.191Z,101502.39
2018-12-29T02:09:28.698Z,101491.39
2018-12-29T02:12:32.318Z,101486.52
2018-12-29T02:15:35.915Z,101484.31
2018-12-29T02:18:39.409Z,101479.89
2018-12-29T02:21:42.901Z,101480.28
2018-12-29T02:24:46.490Z,101479.89
2018-12-29T02:27:50.105Z,101479.89
2018-12-29T02:30:53.616Z,101482.54
2018-12-29T02:33:57.118Z,101480.34
2018-12-29T02:37:00.719Z,101473.80
2018-12-29T02:40:04.521Z,101473.80
2018-12-29T02:43:07.977Z,101473.80
2018-12-29T02:46:11.531Z,101465.09
2018-12-29T02:49:15.110Z,101462.82
2018-12-29T02:52:18.731Z,101452.75
2018-12-29T02:55:22.239Z,101447.08
2018-12-29T02:58:25.781Z,101446.14
2018-12-29T03:01:29.234Z,101437.88
2018-12-29T03:04:34.778Z,101429.06
2018-12-29T03:07:38.291Z,101431.71
2018-12-29T03:10:41.785Z,101437.08
2018-12-29T03:13:45.294Z,101432.79
2018-12-29T03:16:48.790Z,101429.20
2018-12-29T03:19:52.310Z,101427.88
2018-12-29T03:22:55.811Z,101431.78
2018-12-29T03:26:00.338Z,101430.95
2018-12-29T03:29:03.827Z,101430.08
2018-12-29T03:32:07.333Z,101423.00
2018-12-29T03:35:10.776Z,101416.77
2018-12-29T03:38:14.353Z,101414.58
2018-12-29T03:41:17.837Z,101419.42
2018-12-29T03:44:21.322Z,101412.80
2018-12-29T03:47:25.892Z,101417.64
2018-12-29T03:50:29.360Z,101412.34
2018-12-29T03:53:33.879Z,101421.55
2018-12-29T03:56:37.404Z,101418.48
2018-12-29T03:59:40.903Z,101418.48
2018-12-29T04:02:44.384Z,101424.72
2018-12-29T04:05:47.889Z,101418.09
2018-12-29T04:09:27.855Z,101418.55
2018-12-29T04:12:34.602Z,101418.09
2018-12-29T04:15:38.104Z,101415.06
2018-12-29T04:18:42.646Z,101413.33
2018-12-29T04:21:46.163Z,101408.03
2018-12-29T04:24:49.663Z,101412.48
2018-12-29T04:27:53.132Z,101412.94
2018-12-29T04:30:56.652Z,101415.13
2018-12-29T04:34:00.150Z,101417.84
2018-12-29T04:37:05.709Z,101421.82
2018-12-29T04:40:09.204Z,101419.23
2018-12-29T04:43:12.707Z,101421.02
2018-12-29T04:46:16.182Z,101422.34
2018-12-29T04:49:19.714Z,101422.34
2018-12-29T04:52:23.209Z,101421.02
2018-12-29T04:55:26.702Z,101424.91
2018-12-29T04:58:30.198Z,101422.76
2018-12-29T05:01:33.709Z,101430.70
2018-12-29T05:04:38.264Z,101436.89
2018-12-29T05:07:41.724Z,101437.31
2018-12-29T05:10:46.251Z,101437.70
2018-12-29T05:13:49.755Z,101441.67
2018-12-29T05:16:53.255Z,101439.96
2018-12-29T05:19:56.929Z,101441.67
2018-12-29T05:23:01.365Z,101439.02
2018-12-29T05:26:05.003Z,101439.96
2018-12-29T05:29:08.520Z,101437.31
2018-12-29T05:32:11.955Z,101444.77
2018-12-29T05:35:15.492Z,101440.80
2018-12-29T05:38:20.108Z,101441.28
2018-12-29T05:41:23.618Z,101429.38
2018-12-29T05:44:27.064Z,101431.60
2018-12-29T05:47:30.523Z,101430.28
2018-12-29T05:50:34.022Z,101434.25
2018-12-29T05:53:38.599Z,101438.22
2018-12-29T05:56:42.111Z,101444.45
2018-12-29T05:59:45.766Z,101446.71
2018-12-29T06:02:49.275Z,101444.06
2018-12-29T06:05:52.777Z,101443.20
2018-12-29T06:08:57.301Z,101448.03
2018-12-29T06:12:00.793Z,101443.64
2018-12-29T06:15:04.315Z,101445.91
2018-12-29T06:18:07.792Z,101455.17
2018-12-29T06:21:11.290Z,101449.88
2018-12-29T06:24:14.860Z,101454.72
2018-12-29T06:27:18.311Z,101453.46
2018-12-29T06:30:21.786Z,101450.81
2018-12-29T06:33:25.284Z,101452.14
2018-12-29T06:36:28.806Z,101449.04
2018-12-29T06:39:32.335Z,101455.17
2018-12-29T06:42:36.831Z,101462.17
2018-12-29T06:45:40.333Z,101458.20
2018-12-29T06:48:43.824Z,101457.81
2018-12-29T06:51:47.347Z,101454.23
2018-12-29T06:54:50.822Z,101459.53
2018-12-29T06:57:54.318Z,101462.17
2018-12-29T07:00:57.884Z,101465.30
2018-12-29T07:04:01.564Z,101469.73
2018-12-29T07:07:05.033Z,101479.38
2018-12-29T07:10:08.476Z,101471.98
2018-12-29T07:13:11.928Z,101485.15
2018-12-29T07:16:15.383Z,101481.25
2018-12-29T07:19:19.027Z,101477.28
2018-12-29T07:22:22.532Z,101475.95
2018-12-29T07:25:28.104Z,101474.25
2018-12-29T07:28:32.607Z,101478.16
2018-12-29T07:31:36.120Z,101482.19
2018-12-29T07:34:39.609Z,101476.02
2018-12-29T07:37:43.205Z,101478.67
2018-12-29T07:40:46.724Z,101482.25
2018-12-29T07:43:50.194Z,101490.58
2018-12-29T07:46:53.815Z,101487.06
2018-12-29T07:49:59.387Z,101482.70
2018-12-29T07:53:02.881Z,101485.35
2018-12-29T07:56:06.373Z,101489.32
2018-12-29T07:59:09.821Z,101491.58
2018-12-29T08:02:13.304Z,101486.67
2018-12-29T08:05:16.878Z,101488.00
2018-12-29T08:08:20.358Z,101488.87
2018-12-29T08:11:23.881Z,101489.32
2018-12-29T08:14:27.410Z,101497.26
2018-12-29T08:17:30.877Z,101497.26
2018-12-29T08:20:34.320Z,101502.55
2018-12-29T08:23:37.789Z,101498.58
2018-12-29T08:26:41.278Z,101495.94
2018-12-29T08:29:44.779Z,101511.81
2018-12-29T08:32:48.290Z,101506.52
2018-12-29T08:35:51.824Z,101511.81
2018-12-29T08:38:55.296Z,101508.78
2018-12-29T08:41:58.787Z,101510.03
2018-12-29T08:45:02.278Z,101515.78
2018-12-29T08:48:05.946Z,101515.78
2018-12-29T08:51:11.466Z,101507.84
2018-12-29T08:54:14.950Z,101502.16
2018-12-29T08:57:18.451Z,101504.39
2018-12-29T09:00:21.944Z,101500.42
2018-12-29T09:03:26.509Z,101504.39
2018-12-29T09:06:32.107Z,101503.06
2018-12-29T09:09:35.846Z,101503.94
2018-12-29T09:12:39.491Z,101503.94
2018-12-29T09:15:43.128Z,101512.78
2018-12-29T09:18:49.791Z,101512.78
2018-12-29T09:21:53.042Z,101511.91
2018-12-29T09:24:56.510Z,101512.84
2018-12-29T09:28:00.010Z,101523.43
2018-12-29T09:31:04.583Z,101521.63
2018-12-29T09:34:09.077Z,101522.11
2018-12-29T09:37:12.682Z,101512.84
2018-12-29T09:40:16.256Z,101512.84
2018-12-29T09:43:19.879Z,101504.91
2018-12-29T09:46:23.475Z,101512.84
2018-12-29T09:49:26.908Z,101501.33
2018-12-29T09:52:30.537Z,101507.55
2018-12-29T09:55:34.179Z,101498.30
2018-12-29T09:58:38.718Z,101500.00
2018-12-29T10:01:42.218Z,101493.39
2018-12-29T10:04:45.711Z,101492.48
2018-12-29T10:07:49.240Z,101483.64
2018-12-29T10:10:52.698Z,101484.41
2018-12-29T10:13:57.349Z,101488.80
2018-12-29T10:17:01.100Z,101490.13
2018-12-29T10:20:04.968Z,101482.95
2018-12-29T10:23:08.581Z,101466.56
2018-12-29T10:26:12.084Z,101466.56
2018-12-29T10:29:15.552Z,101468.27
2018-12-29T10:32:18.993Z,101473.05
2018-12-29T10:35:22.552Z,101468.59
2018-12-29T10:38:26.094Z,101459.25
2018-12-29T10:41:30.591Z,101471.48
2018-12-29T10:44:34.183Z,101467.73
2018-12-29T10:47:37.855Z,101468.30
2018-12-29T10:50:41.514Z,101470.74
2018-12-29T10:53:45.021Z,101461.79
2018-12-29T10:56:48.512Z,101460.84
2018-12-29T10:59:54.048Z,101451.90
2018-12-29T11:02:57.666Z,101446.02
2018-12-29T11:06:01.280Z,101447.27
2018-12-29T11:09:06.745Z,101450.72
2018-12-29T11:12:10.316Z,101438.80
2018-12-29T11:15:13.802Z,101438.70
2018-12-29T11:18:17.323Z,101436.39
2018-12-29T11:21:20.811Z,101435.91
2018-12-29T11:24:24.428Z,101431.86
2018-12-29T11:27:28.036Z,101426.56
2018-12-29T11:30:31.523Z,101418.00
2018-12-29T11:33:37.078Z,101413.64
2018-12-29T11:36:41.726Z,101414.02
2018-12-29T11:39:45.300Z,101407.86
2018-12-29T11:42:48.802Z,101402.95
2018-12-29T11:45:52.312Z,101397.75
2018-12-29T11:48:56.822Z,101398.52
2018-12-29T11:52:00.344Z,101397.75
2018-12-29T11:55:03.875Z,101391.52
2018-12-29T11:58:07.352Z,101378.27
2018-12-29T12:01:10.826Z,101380.92
2018-12-29T12:04:14.546Z,101376.95
2018-12-29T12:07:18.148Z,101374.83
2018-12-29T12:10:21.757Z,101376.57
2018-12-29T12:13:26.387Z,101378.34
2018-12-29T12:16:29.971Z,101363.78
2018-12-29T12:19:33.475Z,101367.30
2018-12-29T12:22:37.053Z,101366.89
2018-12-29T12:25:40.692Z,101362.46
2018-12-29T12:28:44.200Z,101356.29
2018-12-29T12:31:47.672Z,101354.97
2018-12-29T12:34:51.181Z,101354.52
2018-12-29T12:37:54.699Z,101349.67
2018-12-29T12:40:58.183Z,101346.64
2018-12-29T12:44:01.691Z,101346.27
2018-12-29T12:47:05.184Z,101344.00
2018-12-29T12:50:08.722Z,101344.94
2018-12-29T12:53:13.632Z,101340.97
2018-12-29T12:56:17.534Z,101334.34
2018-12-29T12:59:21.047Z,101339.64
2018-12-29T13:02:24.973Z,101340.97
2018-12-29T13:05:28.441Z,101339.64
2018-12-29T13:08:34.020Z,101333.33
2018-12-29T13:11:38.619Z,101336.44
2018-12-29T13:14:42.227Z,101331.55
2018-12-29T13:17:45.748Z,101335.52
2018-12-29T13:20:51.283Z,101326.64
2018-12-29T13:23:54.805Z,101330.12
2018-12-29T13:26:58.286Z,101329.52
2018-12-29T13:30:02.196Z,101325.93
2018-12-29T13:33:05.700Z,101325.93
2018-12-29T13:36:09.177Z,101329.91
2018-12-29T13:39:12.697Z,101325.41
2018-12-29T13:42:16.194Z,101322.76
2018-12-29T13:45:20.730Z,101320.11
2018-12-29T13:48:24.227Z,101319.16
2018-12-29T13:51:27.834Z,101320.48
2018-12-29T13:54:31.458Z,101315.19
2018-12-29T13:57:36.052Z,101314.66
2018-12-29T14:00:41.559Z,101322.19
2018-12-29T14:03:47.283Z,101316.90
2018-12-29T14:06:50.762Z,101314.17
2018-12-29T14:09:54.315Z,101317.31
2018-12-29T14:12:57.999Z,101315.91
2018-12-29T14:16:01.463Z,101314.59
2018-12-29T14:19:05.089Z,101317.63
2018-12-29T14:22:08.766Z,101315.42
2018-12-29T14:25:12.401Z,101314.97
2018-12-29T14:28:15.884Z,101314.10
2018-12-29T14:31:19.387Z,101312.33
2018-12-29T14:34:22.886Z,101318.48
2018-12-29T14:37:26.540Z,101311.45
2018-12-29T14:40:29.994Z,101318.48
2018-12-29T14:43:33.600Z,101318.48
2018-12-29T14:46:37.196Z,101316.75
2018-12-29T14:49:40.807Z,101320.72
2018-12-29T14:52:44.309Z,101325.03
2018-12-29T14:55:47.803Z,101330.48
2018-12-29T14:58:51.521Z,101336.61
2018-12-29T15:01:55.312Z,101335.14
2018-12-29T15:04:58.947Z,101333.44
2018-12-29T15:08:08.436Z,101332.49
2018-12-29T15:11:12.264Z,101328.52
2018-12-29T15:14:15.777Z,101326.25
2018-12-29T15:17:19.681Z,101324.93
2018-12-29T15:20:24.207Z,101319.17
2018-12-29T15:23:28.130Z,101314.75
2018-12-29T15:26:31.623Z,101311.16
2018-12-29T15:29:38.191Z,101307.56
2018-12-29T15:32:43.118Z,101310.63
2018-12-29T15:35:47.064Z,101307.56
2018-12-29T15:38:51.959Z,101302.27
2018-12-29T15:41:56.592Z,101288.11
2018-12-29T15:45:00.266Z,101278.35
2018-12-29T15:48:03.926Z,101280.09
2018-12-29T15:51:09.469Z,101276.57
2018-12-29T15:54:19.978Z,101265.98
2018-12-29T15:57:23.646Z,101254.05
2018-12-29T16:00:27.143Z,101252.73
2018-12-29T16:03:30.675Z,101259.73
2018-12-29T16:06:34.135Z,101253.11
2018-12-29T16:09:37.647Z,101254.44
2018-12-29T16:12:41.230Z,101244.41
2018-12-29T16:15:46.115Z,101238.62
2018-12-29T16:18:49.571Z,101232.87
2018-12-29T16:21:54.503Z,101225.07
2018-12-29T16:24:58.542Z,101216.59
2018-12-29T16:28:02.106Z,101208.64
2018-12-29T16:31:06.075Z,101201.61
2018-12-29T16:34:10.167Z,101201.23
2018-12-29T16:37:13.676Z,101207.86
2018-12-29T16:40:17.571Z,101188.94
2018-12-29T16:43:21.067Z,101179.66
2018-12-29T16:46:24.574Z,101176.15
2018-12-29T16:49:29.104Z,101173.95
2018-12-29T16:52:32.545Z,101173.05
2018-12-29T16:55:36.107Z,101172.55
2018-12-29T16:58:40.003Z,101162.45
2018-12-29T17:01:43.514Z,101169.91
2018-12-29T17:04:47.004Z,101163.77
2018-12-29T17:07:50.501Z,101162.91
2018-12-29T17:10:54.019Z,101162.45
2018-12-29T17:13:57.502Z,101162.03
2018-12-29T17:17:03.054Z,101162.91
2018-12-29T17:20:07.988Z,101162.03
2018-12-29T17:23:12.557Z,101162.03
2018-12-29T17:26:18.466Z,101150.23
2018-12-29T17:29:21.975Z,101142.73
2018-12-29T17:32:25.475Z,101142.73
2018-12-29T17:35:29.997Z,101135.73
2018-12-29T17:38:33.495Z,101139.30
2018-12-29T17:41:37.417Z,101138.13
2018-12-29T17:44:40.948Z,101131.52
2018-12-29T17:47:44.429Z,101131.52
2018-12-29T17:50:47.910Z,101132.45
2018-12-29T17:53:51.750Z,101132.45
2018-12-29T17:56:55.539Z,101122.81
2018-12-29T17:59:59.038Z,101115.81
2018-12-29T18:03:02.551Z,101114.95
2018-12-29T18:06:06.002Z,101116.72
2018-12-29T18:09:10.548Z,101110.10
2018-12-29T18:12:14.062Z,101108.02
2018-12-29T18:15:17.875Z,101108.94
2018-12-29T18:18:21.685Z,101109.80
2018-12-29T18:21:25.213Z,101111.58
2018-12-29T18:24:28.694Z,101111.50
2018-12-29T18:27:32.151Z,101117.75
2018-12-29T18:30:35.675Z,101121.72
2018-12-29T18:33:39.192Z,101124.37
2018-12-29T18:36:42.682Z,101137.08
2018-12-29T18:39:46.117Z,101133.56
2018-12-29T18:42:49.647Z,101134.42
2018-12-29T18:45:53.091Z,101126.94
2018-12-29T18:48:56.524Z,101129.59
2018-12-29T18:52:01.014Z,101135.34
2018-12-29T18:55:04.704Z,101120.31
2018-12-29T18:58:08.160Z,101130.05
2018-12-29T19:01:12.136Z,101135.34
2018-12-29T19:04:16.650Z,101136.20
2018-12-29T19:07:20.097Z,101123.34
2018-12-29T19:10:23.605Z,101124.67
2018-12-29T19:13:27.039Z,101110.67
2018-12-29T19:16:30.760Z,101110.67
2018-12-29T19:19:34.249Z,101100.53
2018-12-29T19:22:37.762Z,101060.03
2018-12-29T19:25:41.410Z,101059.57
2018-12-29T19:28:45.271Z,101054.27
2018-12-29T19:31:49.114Z,101042.81
2018-12-29T19:34:53.032Z,101031.84
2018-12-29T19:37:56.662Z,101023.45
2018-12-29T19:41:00.106Z,100999.70
2018-12-29T19:44:04.001Z,100992.63
2018-12-29T19:47:07.867Z,100980.30
2018-12-29T19:50:12.653Z,100978.59
2018-12-29T19:53:16.145Z,100968.00
2018-12-29T19:56:19.589Z,100963.66
2018-12-29T19:59:23.132Z,100957.50
2018-12-29T20:02:27.682Z,100948.69
2018-12-29T20:05:31.388Z,100944.72
2018-12-29T20:08:35.986Z,100932.80
2018-12-29T20:11:39.620Z,100916.45
2018-12-29T20:14:43.114Z,100890.36
2018-12-29T20:17:46.613Z,100880.63
2018-12-29T20:20:50.116Z,100876.66
2018-12-29T20:23:56.683Z,100874.39
2018-12-29T20:27:00.150Z,100873.55
2018-12-29T20:30:04.477Z,100878.36
2018-12-29T20:33:08.029Z,100891.59
2018-12-29T20:36:11.513Z,100893.88
2018-12-29T20:39:14.983Z,100889.44
2018-12-29T20:42:18.467Z,100865.53
2018-12-29T20:45:22.116Z,100860.23
2018-12-29T20:48:25.735Z,100856.64
2018-12-29T20:51:35.070Z,100841.70
2018-12-29T20:54:38.513Z,100831.11
2018-12-29T20:57:41.981Z,100822.30
2018-12-29T21:00:45.476Z,100824.08
2018-12-29T21:03:48.961Z,100821.44
2018-12-29T21:06:52.884Z,100813.90
2018-12-29T21:09:58.428Z,100813.90
2018-12-29T21:13:01.867Z,100806.50
2018-12-29T21:16:05.439Z,100797.61
2018-12-29T21:19:08.931Z,100793.63
2018-12-29T21:22:12.408Z,100783.05
2018-12-29T21:25:15.936Z,100778.53
2018-12-29T21:28:19.427Z,100773.69
2018-12-29T21:31:22.940Z,100775.02
2018-12-29T21:34:26.422Z,100761.31
2018-12-29T21:37:29.965Z,100756.39
2018-12-29T21:40:33.378Z,100751.47
2018-12-29T21:43:36.852Z,100748.83
2018-12-29T21:46:40.758Z,100748.83
2018-12-29T21:49:44.241Z,100745.26
2018-12-29T21:52:47.855Z,100732.84
2018-12-29T21:55:51.291Z,100722.26
2018-12-29T21:58:54.790Z,100725.77
2018-12-29T22:01:58.278Z,100721.25
2018-12-29T22:05:01.807Z,100716.88
2018-12-29T22:08:06.382Z,100714.14
2018-12-29T22:11:09.971Z,100721.34
2018-12-29T22:14:13.491Z,100714.23
2018-12-29T22:17:16.986Z,100706.78
2018-12-29T22:20:20.482Z,100697.11
2018-12-29T22:23:24.039Z,100692.67
2018-12-29T22:26:34.962Z,100684.91
2018-12-29T22:29:38.477Z,100681.80
2018-12-29T22:32:41.972Z,100681.30
2018-12-29T22:35:46.508Z,100669.88
2018-12-29T22:38:52.044Z,100667.70
2018-12-29T22:41:56.563Z,100667.78
2018-12-29T22:45:00.157Z,100658.52
2018-12-29T22:48:03.772Z,100641.40
2018-12-29T22:51:11.375Z,100642.72
2018-12-29T22:54:16.932Z,100630.07
2018-12-29T22:57:20.448Z,100627.88
2018-12-29T23:00:39.653Z,100624.86
2018-12-29T23:03:44.207Z,100620.48
2018-12-29T23:06:48.741Z,100621.35
2018-12-29T23:09:52.937Z,100611.31
2018-12-29T23:12:56.561Z,100614.91
2018-12-29T23:16:00.043Z,100603.00
2018-12-29T23:19:03.577Z,100599.98
2018-12-29T23:22:07.055Z,100603.95
2018-12-29T23:25:10.583Z,100601.77
2018-12-29T23:28:14.479Z,100591.67
2018-12-29T23:31:18.995Z,100585.60
2018-12-29T23:34:22.521Z,100575.87
2018-12-29T23:37:26.017Z,100590.89
2018-12-29T23:40:30.958Z,100582.95
2018-12-29T23:43:34.486Z,100568.48
2018-12-29T23:46:37.942Z,100569.91
2018-12-29T23:49:42.467Z,100560.17
2018-12-29T23:52:46.415Z,100551.46
2018-12-29T23:55:50.293Z,100558.95
2018-12-29T23:58:53.798Z,100558.95
